sensor_id;sensor_type;location;lat;lon;timestamp;pressure;altitude;pressure_sealevel;temperature;humidity
60642;BME280;46837;52.446;-1.930;2023-05-07T00:00:10;99912.67;;;15.43;85.28
60642;BME280;46837;52.446;-1.930;2023-05-07T00:01:09;99916.79;;;15.44;85.37
60642;BME280;46837;52.446;-1.930;2023-05-07T00:02:09;99916.53;;;15.40;85.43
60642;BME280;46837;52.446;-1.930;2023-05-07T00:03:09;99917.41;;;15.43;85.36
60642;BME280;46837;52.446;-1.930;2023-05-07T00:04:09;99920.86;;;15.44;85.26
60642;BME280;46837;52.446;-1.930;2023-05-07T00:05:09;99920.16;;;15.40;85.37
60642;BME280;46837;52.446;-1.930;2023-05-07T00:06:09;99920.84;;;15.40;85.50
60642;BME280;46837;52.446;-1.930;2023-05-07T00:07:09;99921.12;;;15.39;85.61
60642;BME280;46837;52.446;-1.930;2023-05-07T00:08:09;99921.88;;;15.39;85.52
60642;BME280;46837;52.446;-1.930;2023-05-07T00:09:09;99920.79;;;15.37;85.70
60642;BME280;46837;52.446;-1.930;2023-05-07T00:10:09;99918.01;;;15.35;85.75
60642;BME280;46837;52.446;-1.930;2023-05-07T00:11:09;99917.22;;;15.36;85.78
60642;BME280;46837;52.446;-1.930;2023-05-07T00:12:09;99918.95;;;15.33;85.88
60642;BME280;46837;52.446;-1.930;2023-05-07T00:13:09;99921.20;;;15.33;85.94
60642;BME280;46837;52.446;-1.930;2023-05-07T00:14:09;99920.49;;;15.32;85.91
60642;BME280;46837;52.446;-1.930;2023-05-07T00:15:09;99920.50;;;15.32;86.06
60642;BME280;46837;52.446;-1.930;2023-05-07T00:16:09;99919.33;;;15.32;86.03
60642;BME280;46837;52.446;-1.930;2023-05-07T00:17:09;99922.66;;;15.28;86.17
60642;BME280;46837;52.446;-1.930;2023-05-07T00:18:09;99921.30;;;15.33;86.09
60642;BME280;46837;52.446;-1.930;2023-05-07T00:19:09;99921.98;;;15.30;86.18
60642;BME280;46837;52.446;-1.930;2023-05-07T00:20:09;99926.66;;;15.32;86.20
60642;BME280;46837;52.446;-1.930;2023-05-07T00:21:09;99923.70;;;15.31;86.14
60642;BME280;46837;52.446;-1.930;2023-05-07T00:22:09;99925.22;;;15.33;86.19
60642;BME280;46837;52.446;-1.930;2023-05-07T00:23:09;99924.86;;;15.31;86.30
60642;BME280;46837;52.446;-1.930;2023-05-07T00:24:09;99929.48;;;15.31;86.27
60642;BME280;46837;52.446;-1.930;2023-05-07T00:25:09;99927.34;;;15.31;86.33
60642;BME280;46837;52.446;-1.930;2023-05-07T00:26:09;99927.36;;;15.33;86.26
60642;BME280;46837;52.446;-1.930;2023-05-07T00:27:09;99928.29;;;15.34;86.18
60642;BME280;46837;52.446;-1.930;2023-05-07T00:28:09;99927.14;;;15.35;86.07
60642;BME280;46837;52.446;-1.930;2023-05-07T00:29:09;99929.85;;;15.35;86.13
60642;BME280;46837;52.446;-1.930;2023-05-07T00:30:09;99930.62;;;15.34;86.08
60642;BME280;46837;52.446;-1.930;2023-05-07T00:31:09;99932.42;;;15.34;86.19
60642;BME280;46837;52.446;-1.930;2023-05-07T00:32:09;99933.10;;;15.32;86.28
60642;BME280;46837;52.446;-1.930;2023-05-07T00:33:09;99934.27;;;15.31;86.29
60642;BME280;46837;52.446;-1.930;2023-05-07T00:34:09;99935.45;;;15.22;86.73
60642;BME280;46837;52.446;-1.930;2023-05-07T00:35:09;99932.91;;;15.23;86.82
60642;BME280;46837;52.446;-1.930;2023-05-07T00:36:09;99934.87;;;15.20;86.73
60642;BME280;46837;52.446;-1.930;2023-05-07T00:37:09;99937.05;;;15.19;86.87
60642;BME280;46837;52.446;-1.930;2023-05-07T00:38:09;99936.68;;;15.19;86.84
60642;BME280;46837;52.446;-1.930;2023-05-07T00:39:09;99937.29;;;15.18;86.90
60642;BME280;46837;52.446;-1.930;2023-05-07T00:40:10;99942.14;;;15.13;87.06
60642;BME280;46837;52.446;-1.930;2023-05-07T00:41:09;99940.85;;;15.10;87.26
60642;BME280;46837;52.446;-1.930;2023-05-07T00:42:09;99939.91;;;15.10;87.20
60642;BME280;46837;52.446;-1.930;2023-05-07T00:43:09;99942.40;;;15.09;87.19
60642;BME280;46837;52.446;-1.930;2023-05-07T00:44:09;99939.46;;;15.11;87.15
60642;BME280;46837;52.446;-1.930;2023-05-07T00:45:09;99941.64;;;15.13;87.02
60642;BME280;46837;52.446;-1.930;2023-05-07T00:46:09;99943.43;;;15.13;86.89
60642;BME280;46837;52.446;-1.930;2023-05-07T00:47:09;99942.68;;;15.10;86.88
60642;BME280;46837;52.446;-1.930;2023-05-07T00:48:09;99941.48;;;15.06;86.90
60642;BME280;46837;52.446;-1.930;2023-05-07T00:49:09;99942.36;;;15.03;86.83
60642;BME280;46837;52.446;-1.930;2023-05-07T00:50:09;99941.70;;;15.03;86.86
60642;BME280;46837;52.446;-1.930;2023-05-07T00:51:09;99943.59;;;14.99;86.79
60642;BME280;46837;52.446;-1.930;2023-05-07T00:52:09;99946.61;;;15.00;86.81
60642;BME280;46837;52.446;-1.930;2023-05-07T00:53:09;99943.53;;;14.97;86.64
60642;BME280;46837;52.446;-1.930;2023-05-07T00:54:09;99948.71;;;14.93;86.74
60642;BME280;46837;52.446;-1.930;2023-05-07T00:55:09;99943.94;;;14.89;86.99
60642;BME280;46837;52.446;-1.930;2023-05-07T00:56:09;99946.80;;;14.89;87.04
60642;BME280;46837;52.446;-1.930;2023-05-07T00:57:09;99943.84;;;14.88;87.01
60642;BME280;46837;52.446;-1.930;2023-05-07T00:58:09;99946.07;;;14.90;86.94
60642;BME280;46837;52.446;-1.930;2023-05-07T00:59:09;99946.69;;;14.92;86.85
60642;BME280;46837;52.446;-1.930;2023-05-07T01:00:09;99939.20;;;14.88;86.98
60642;BME280;46837;52.446;-1.930;2023-05-07T01:01:09;99945.66;;;14.85;86.99
60642;BME280;46837;52.446;-1.930;2023-05-07T01:02:09;99947.23;;;14.84;86.95
60642;BME280;46837;52.446;-1.930;2023-05-07T01:03:09;99944.10;;;14.84;86.78
60642;BME280;46837;52.446;-1.930;2023-05-07T01:04:09;99947.64;;;14.82;86.82
60642;BME280;46837;52.446;-1.930;2023-05-07T01:05:09;99944.61;;;14.86;86.76
60642;BME280;46837;52.446;-1.930;2023-05-07T01:06:09;99945.49;;;14.83;86.54
60642;BME280;46837;52.446;-1.930;2023-05-07T01:07:09;99940.00;;;14.73;86.60
60642;BME280;46837;52.446;-1.930;2023-05-07T01:08:09;99936.56;;;14.71;86.88
60642;BME280;46837;52.446;-1.930;2023-05-07T01:09:09;99937.25;;;14.73;86.85
60642;BME280;46837;52.446;-1.930;2023-05-07T01:10:09;99936.91;;;14.74;86.79
60642;BME280;46837;52.446;-1.930;2023-05-07T01:11:09;99938.45;;;14.77;86.62
60642;BME280;46837;52.446;-1.930;2023-05-07T01:12:09;99940.50;;;14.76;86.66
60642;BME280;46837;52.446;-1.930;2023-05-07T01:13:09;99937.75;;;14.73;86.71
60642;BME280;46837;52.446;-1.930;2023-05-07T01:14:09;99939.53;;;14.71;86.82
60642;BME280;46837;52.446;-1.930;2023-05-07T01:15:09;99942.91;;;14.71;86.79
60642;BME280;46837;52.446;-1.930;2023-05-07T01:16:09;99939.01;;;14.70;86.73
60642;BME280;46837;52.446;-1.930;2023-05-07T01:17:09;99943.52;;;14.67;86.88
60642;BME280;46837;52.446;-1.930;2023-05-07T01:18:09;99940.30;;;14.65;86.91
60642;BME280;46837;52.446;-1.930;2023-05-07T01:19:09;99940.96;;;14.65;86.86
60642;BME280;46837;52.446;-1.930;2023-05-07T01:20:09;99938.15;;;14.66;86.73
60642;BME280;46837;52.446;-1.930;2023-05-07T01:21:11;99939.54;;;14.64;86.69
60642;BME280;46837;52.446;-1.930;2023-05-07T01:22:11;99940.27;;;14.60;86.62
60642;BME280;46837;52.446;-1.930;2023-05-07T01:23:09;99940.65;;;14.58;86.66
60642;BME280;46837;52.446;-1.930;2023-05-07T01:24:09;99944.37;;;14.56;86.53
60642;BME280;46837;52.446;-1.930;2023-05-07T01:25:09;99940.91;;;14.52;86.57
60642;BME280;46837;52.446;-1.930;2023-05-07T01:26:09;99940.64;;;14.46;86.67
60642;BME280;46837;52.446;-1.930;2023-05-07T01:27:09;99947.93;;;14.42;86.83
60642;BME280;46837;52.446;-1.930;2023-05-07T01:28:09;99946.34;;;14.41;86.73
60642;BME280;46837;52.446;-1.930;2023-05-07T01:29:09;99947.04;;;14.42;86.69
60642;BME280;46837;52.446;-1.930;2023-05-07T01:30:09;99954.21;;;14.43;86.64
60642;BME280;46837;52.446;-1.930;2023-05-07T01:31:09;99949.11;;;14.40;86.69
60642;BME280;46837;52.446;-1.930;2023-05-07T01:32:09;99952.89;;;14.40;86.69
60642;BME280;46837;52.446;-1.930;2023-05-07T01:33:14;99949.46;;;14.42;86.60
60642;BME280;46837;52.446;-1.930;2023-05-07T01:34:09;99946.63;;;14.36;86.53
60642;BME280;46837;52.446;-1.930;2023-05-07T01:35:11;99950.85;;;14.35;86.70
60642;BME280;46837;52.446;-1.930;2023-05-07T01:36:09;99951.12;;;14.38;86.56
60642;BME280;46837;52.446;-1.930;2023-05-07T01:37:09;99949.31;;;14.38;86.36
60642;BME280;46837;52.446;-1.930;2023-05-07T01:38:09;99950.19;;;14.35;86.34
60642;BME280;46837;52.446;-1.930;2023-05-07T01:39:09;99952.02;;;14.36;86.23
60642;BME280;46837;52.446;-1.930;2023-05-07T01:40:09;99948.89;;;14.36;86.08
60642;BME280;46837;52.446;-1.930;2023-05-07T01:41:09;99948.32;;;14.35;86.04
60642;BME280;46837;52.446;-1.930;2023-05-07T01:42:09;99948.39;;;14.33;85.96
60642;BME280;46837;52.446;-1.930;2023-05-07T01:43:09;99947.02;;;14.29;85.93
60642;BME280;46837;52.446;-1.930;2023-05-07T01:44:10;99943.54;;;14.27;86.01
60642;BME280;46837;52.446;-1.930;2023-05-07T01:45:09;99944.14;;;14.24;85.97
60642;BME280;46837;52.446;-1.930;2023-05-07T01:46:09;99950.56;;;14.21;86.05
60642;BME280;46837;52.446;-1.930;2023-05-07T01:47:09;99943.55;;;14.19;86.16
60642;BME280;46837;52.446;-1.930;2023-05-07T01:48:09;99946.07;;;14.17;86.15
60642;BME280;46837;52.446;-1.930;2023-05-07T01:49:09;99946.62;;;14.16;86.20
60642;BME280;46837;52.446;-1.930;2023-05-07T01:50:09;99944.80;;;14.17;86.14
60642;BME280;46837;52.446;-1.930;2023-05-07T01:51:09;99950.12;;;14.14;86.06
60642;BME280;46837;52.446;-1.930;2023-05-07T01:52:10;99953.43;;;14.13;86.07
60642;BME280;46837;52.446;-1.930;2023-05-07T01:53:09;99952.82;;;14.13;86.09
60642;BME280;46837;52.446;-1.930;2023-05-07T01:54:09;99950.73;;;14.14;86.07
60642;BME280;46837;52.446;-1.930;2023-05-07T01:55:09;99955.59;;;14.15;85.97
60642;BME280;46837;52.446;-1.930;2023-05-07T01:56:09;99956.88;;;14.14;85.86
60642;BME280;46837;52.446;-1.930;2023-05-07T01:57:09;99959.11;;;14.15;85.89
60642;BME280;46837;52.446;-1.930;2023-05-07T01:58:09;99962.21;;;14.14;85.88
60642;BME280;46837;52.446;-1.930;2023-05-07T01:59:09;99965.98;;;14.15;85.88
60642;BME280;46837;52.446;-1.930;2023-05-07T02:00:09;99968.32;;;14.14;85.82
60642;BME280;46837;52.446;-1.930;2023-05-07T02:01:09;99966.28;;;14.14;85.87
60642;BME280;46837;52.446;-1.930;2023-05-07T02:02:09;99968.32;;;14.14;85.94
60642;BME280;46837;52.446;-1.930;2023-05-07T02:03:09;99968.48;;;14.14;85.95
60642;BME280;46837;52.446;-1.930;2023-05-07T02:04:09;99971.50;;;14.14;85.89
60642;BME280;46837;52.446;-1.930;2023-05-07T02:05:09;99975.57;;;14.17;85.82
60642;BME280;46837;52.446;-1.930;2023-05-07T02:06:09;99974.53;;;14.17;85.74
60642;BME280;46837;52.446;-1.930;2023-05-07T02:07:09;99975.27;;;14.15;85.71
60642;BME280;46837;52.446;-1.930;2023-05-07T02:08:09;99975.64;;;14.12;85.76
60642;BME280;46837;52.446;-1.930;2023-05-07T02:09:09;99978.59;;;14.11;85.87
60642;BME280;46837;52.446;-1.930;2023-05-07T02:10:09;99980.10;;;14.11;85.84
60642;BME280;46837;52.446;-1.930;2023-05-07T02:11:09;99984.87;;;14.12;85.76
60642;BME280;46837;52.446;-1.930;2023-05-07T02:12:09;99983.61;;;14.04;85.79
60642;BME280;46837;52.446;-1.930;2023-05-07T02:13:09;99985.12;;;14.03;86.10
60642;BME280;46837;52.446;-1.930;2023-05-07T02:14:09;99988.54;;;14.01;86.09
60642;BME280;46837;52.446;-1.930;2023-05-07T02:15:09;99991.00;;;14.03;86.14
60642;BME280;46837;52.446;-1.930;2023-05-07T02:16:09;99990.89;;;14.03;86.04
60642;BME280;46837;52.446;-1.930;2023-05-07T02:17:09;99991.57;;;14.01;86.08
60642;BME280;46837;52.446;-1.930;2023-05-07T02:18:09;99996.89;;;14.02;86.10
60642;BME280;46837;52.446;-1.930;2023-05-07T02:19:09;99997.88;;;14.02;85.99
60642;BME280;46837;52.446;-1.930;2023-05-07T02:20:09;99998.64;;;14.03;86.07
60642;BME280;46837;52.446;-1.930;2023-05-07T02:21:09;100003.81;;;14.06;85.94
60642;BME280;46837;52.446;-1.930;2023-05-07T02:22:09;100002.39;;;14.05;85.91
60642;BME280;46837;52.446;-1.930;2023-05-07T02:23:09;100007.40;;;14.04;86.00
60642;BME280;46837;52.446;-1.930;2023-05-07T02:24:09;100005.57;;;14.01;86.16
60642;BME280;46837;52.446;-1.930;2023-05-07T02:25:09;100007.32;;;14.02;86.16
60642;BME280;46837;52.446;-1.930;2023-05-07T02:26:09;100010.01;;;14.03;86.23
60642;BME280;46837;52.446;-1.930;2023-05-07T02:27:09;100009.30;;;14.02;86.15
60642;BME280;46837;52.446;-1.930;2023-05-07T02:28:09;100011.88;;;14.03;86.13
60642;BME280;46837;52.446;-1.930;2023-05-07T02:29:09;100011.98;;;14.03;86.08
60642;BME280;46837;52.446;-1.930;2023-05-07T02:30:09;100012.72;;;14.01;86.12
60642;BME280;46837;52.446;-1.930;2023-05-07T02:31:09;100013.85;;;14.00;86.16
60642;BME280;46837;52.446;-1.930;2023-05-07T02:32:09;100012.86;;;13.95;86.34
60642;BME280;46837;52.446;-1.930;2023-05-07T02:33:09;100012.36;;;13.96;86.44
60642;BME280;46837;52.446;-1.930;2023-05-07T02:34:09;100013.12;;;13.96;86.37
60642;BME280;46837;52.446;-1.930;2023-05-07T02:35:09;100013.09;;;13.93;86.54
60642;BME280;46837;52.446;-1.930;2023-05-07T02:36:11;100017.89;;;13.93;86.53
60642;BME280;46837;52.446;-1.930;2023-05-07T02:37:09;100016.31;;;13.92;86.53
60642;BME280;46837;52.446;-1.930;2023-05-07T02:38:09;100016.04;;;13.91;86.54
60642;BME280;46837;52.446;-1.930;2023-05-07T02:39:09;100013.57;;;13.91;86.56
60642;BME280;46837;52.446;-1.930;2023-05-07T02:40:09;100014.50;;;13.91;86.54
60642;BME280;46837;52.446;-1.930;2023-05-07T02:41:09;100013.00;;;13.88;86.54
60642;BME280;46837;52.446;-1.930;2023-05-07T02:42:09;100016.50;;;13.86;86.71
60642;BME280;46837;52.446;-1.930;2023-05-07T02:43:09;100014.93;;;13.84;86.79
60642;BME280;46837;52.446;-1.930;2023-05-07T02:44:09;100019.21;;;13.84;86.82
60642;BME280;46837;52.446;-1.930;2023-05-07T02:45:09;100018.98;;;13.85;86.77
60642;BME280;46837;52.446;-1.930;2023-05-07T02:46:09;100019.53;;;13.85;86.67
60642;BME280;46837;52.446;-1.930;2023-05-07T02:47:11;100017.97;;;13.83;86.83
60642;BME280;46837;52.446;-1.930;2023-05-07T02:48:09;100027.01;;;13.84;86.95
60642;BME280;46837;52.446;-1.930;2023-05-07T02:49:09;100027.25;;;13.87;86.88
60642;BME280;46837;52.446;-1.930;2023-05-07T02:50:09;100030.31;;;13.88;86.86
60642;BME280;46837;52.446;-1.930;2023-05-07T02:51:09;100028.10;;;13.89;86.85
60642;BME280;46837;52.446;-1.930;2023-05-07T02:52:09;100026.91;;;13.92;86.81
60642;BME280;46837;52.446;-1.930;2023-05-07T02:53:09;100029.45;;;13.95;86.74
60642;BME280;46837;52.446;-1.930;2023-05-07T02:54:09;100025.32;;;13.96;86.71
60642;BME280;46837;52.446;-1.930;2023-05-07T02:55:09;100027.64;;;13.99;86.54
60642;BME280;46837;52.446;-1.930;2023-05-07T02:56:09;100029.80;;;14.01;86.53
60642;BME280;46837;52.446;-1.930;2023-05-07T02:57:09;100027.11;;;14.02;86.43
60642;BME280;46837;52.446;-1.930;2023-05-07T02:58:09;100029.97;;;14.01;86.42
60642;BME280;46837;52.446;-1.930;2023-05-07T02:59:09;100026.55;;;13.98;86.44
60642;BME280;46837;52.446;-1.930;2023-05-07T03:00:12;100028.97;;;13.98;86.51
60642;BME280;46837;52.446;-1.930;2023-05-07T03:01:09;100028.67;;;13.97;86.51
60642;BME280;46837;52.446;-1.930;2023-05-07T03:02:09;100032.14;;;13.95;86.42
60642;BME280;46837;52.446;-1.930;2023-05-07T03:03:09;100032.41;;;13.95;86.46
60642;BME280;46837;52.446;-1.930;2023-05-07T03:04:09;100036.33;;;13.98;86.32
60642;BME280;46837;52.446;-1.930;2023-05-07T03:05:09;100034.19;;;13.97;86.33
60642;BME280;46837;52.446;-1.930;2023-05-07T03:06:09;100037.79;;;13.96;86.42
60642;BME280;46837;52.446;-1.930;2023-05-07T03:07:09;100037.10;;;13.98;86.36
60642;BME280;46837;52.446;-1.930;2023-05-07T03:08:09;100038.25;;;13.98;86.22
60642;BME280;46837;52.446;-1.930;2023-05-07T03:09:09;100037.67;;;13.93;86.36
60642;BME280;46837;52.446;-1.930;2023-05-07T03:10:09;100036.46;;;13.93;86.48
60642;BME280;46837;52.446;-1.930;2023-05-07T03:11:09;100038.13;;;13.94;86.40
60642;BME280;46837;52.446;-1.930;2023-05-07T03:12:09;100036.74;;;13.97;86.28
60642;BME280;46837;52.446;-1.930;2023-05-07T03:13:09;100037.57;;;13.97;86.25
60642;BME280;46837;52.446;-1.930;2023-05-07T03:14:09;100039.24;;;13.94;86.36
60642;BME280;46837;52.446;-1.930;2023-05-07T03:15:09;100034.82;;;13.92;86.50
60642;BME280;46837;52.446;-1.930;2023-05-07T03:16:09;100036.05;;;13.95;86.49
60642;BME280;46837;52.446;-1.930;2023-05-07T03:17:09;100035.37;;;13.92;86.38
60642;BME280;46837;52.446;-1.930;2023-05-07T03:18:09;100038.16;;;13.88;86.71
60642;BME280;46837;52.446;-1.930;2023-05-07T03:19:09;100039.88;;;13.87;86.62
60642;BME280;46837;52.446;-1.930;2023-05-07T03:20:09;100040.46;;;13.85;86.72
60642;BME280;46837;52.446;-1.930;2023-05-07T03:21:09;100041.99;;;13.85;86.73
60642;BME280;46837;52.446;-1.930;2023-05-07T03:22:09;100042.16;;;13.85;86.68
60642;BME280;46837;52.446;-1.930;2023-05-07T03:23:09;100044.58;;;13.85;86.72
60642;BME280;46837;52.446;-1.930;2023-05-07T03:24:09;100048.57;;;13.82;86.89
60642;BME280;46837;52.446;-1.930;2023-05-07T03:25:09;100046.40;;;13.83;86.92
60642;BME280;46837;52.446;-1.930;2023-05-07T03:26:09;100046.12;;;13.84;86.89
60642;BME280;46837;52.446;-1.930;2023-05-07T03:27:09;100050.11;;;13.83;87.05
60642;BME280;46837;52.446;-1.930;2023-05-07T03:28:09;100048.80;;;13.85;87.03
60642;BME280;46837;52.446;-1.930;2023-05-07T03:29:09;100048.92;;;13.89;86.91
60642;BME280;46837;52.446;-1.930;2023-05-07T03:30:09;100051.95;;;13.89;87.00
60642;BME280;46837;52.446;-1.930;2023-05-07T03:31:09;100050.95;;;13.90;87.05
60642;BME280;46837;52.446;-1.930;2023-05-07T03:32:09;100054.75;;;13.93;86.97
60642;BME280;46837;52.446;-1.930;2023-05-07T03:33:09;100052.50;;;13.93;87.06
60642;BME280;46837;52.446;-1.930;2023-05-07T03:34:09;100052.92;;;13.94;87.11
60642;BME280;46837;52.446;-1.930;2023-05-07T03:35:09;100054.61;;;13.96;87.04
60642;BME280;46837;52.446;-1.930;2023-05-07T03:36:09;100057.47;;;13.99;87.00
60642;BME280;46837;52.446;-1.930;2023-05-07T03:37:09;100057.44;;;14.01;86.92
60642;BME280;46837;52.446;-1.930;2023-05-07T03:38:09;100059.70;;;14.05;86.79
60642;BME280;46837;52.446;-1.930;2023-05-07T03:39:09;100056.80;;;14.08;86.71
60642;BME280;46837;52.446;-1.930;2023-05-07T03:40:09;100058.34;;;14.08;86.58
60642;BME280;46837;52.446;-1.930;2023-05-07T03:41:09;100058.44;;;14.09;86.74
60642;BME280;46837;52.446;-1.930;2023-05-07T03:42:09;100058.68;;;14.12;86.69
60642;BME280;46837;52.446;-1.930;2023-05-07T03:43:09;100059.06;;;14.11;86.70
60642;BME280;46837;52.446;-1.930;2023-05-07T03:44:09;100062.89;;;14.14;86.70
60642;BME280;46837;52.446;-1.930;2023-05-07T03:45:09;100064.11;;;14.18;86.57
60642;BME280;46837;52.446;-1.930;2023-05-07T03:46:09;100065.83;;;14.19;86.49
60642;BME280;46837;52.446;-1.930;2023-05-07T03:47:09;100063.30;;;14.19;86.46
60642;BME280;46837;52.446;-1.930;2023-05-07T03:48:09;100066.01;;;14.22;86.28
60642;BME280;46837;52.446;-1.930;2023-05-07T03:49:09;100069.18;;;14.24;86.17
60642;BME280;46837;52.446;-1.930;2023-05-07T03:50:09;100067.59;;;14.25;86.16
60642;BME280;46837;52.446;-1.930;2023-05-07T03:51:09;100067.54;;;14.27;86.13
60642;BME280;46837;52.446;-1.930;2023-05-07T03:52:09;100068.00;;;14.29;86.00
60642;BME280;46837;52.446;-1.930;2023-05-07T03:53:09;100070.80;;;14.29;85.93
60642;BME280;46837;52.446;-1.930;2023-05-07T03:54:09;100067.66;;;14.30;85.84
60642;BME280;46837;52.446;-1.930;2023-05-07T03:55:09;100069.41;;;14.28;85.85
60642;BME280;46837;52.446;-1.930;2023-05-07T03:56:09;100068.22;;;14.29;86.02
60642;BME280;46837;52.446;-1.930;2023-05-07T03:57:09;100070.62;;;14.27;85.88
60642;BME280;46837;52.446;-1.930;2023-05-07T03:58:09;100069.24;;;14.28;85.87
60642;BME280;46837;52.446;-1.930;2023-05-07T03:59:09;100070.24;;;14.27;85.80
60642;BME280;46837;52.446;-1.930;2023-05-07T04:00:09;100071.94;;;14.23;85.92
60642;BME280;46837;52.446;-1.930;2023-05-07T04:01:09;100072.81;;;14.24;85.92
60642;BME280;46837;52.446;-1.930;2023-05-07T04:02:09;100071.55;;;14.23;85.85
60642;BME280;46837;52.446;-1.930;2023-05-07T04:03:09;100072.33;;;14.22;85.85
60642;BME280;46837;52.446;-1.930;2023-05-07T04:04:09;100069.02;;;14.19;85.89
60642;BME280;46837;52.446;-1.930;2023-05-07T04:05:09;100069.93;;;14.17;85.98
60642;BME280;46837;52.446;-1.930;2023-05-07T04:06:09;100071.92;;;14.20;85.87
60642;BME280;46837;52.446;-1.930;2023-05-07T04:07:09;100070.21;;;14.21;85.85
60642;BME280;46837;52.446;-1.930;2023-05-07T04:08:09;100071.28;;;14.23;85.80
60642;BME280;46837;52.446;-1.930;2023-05-07T04:09:09;100071.51;;;14.22;85.74
60642;BME280;46837;52.446;-1.930;2023-05-07T04:10:09;100072.20;;;14.24;85.76
60642;BME280;46837;52.446;-1.930;2023-05-07T04:11:09;100071.24;;;14.25;85.65
60642;BME280;46837;52.446;-1.930;2023-05-07T04:12:09;100072.86;;;14.25;85.59
60642;BME280;46837;52.446;-1.930;2023-05-07T04:13:09;100073.54;;;14.22;85.65
60642;BME280;46837;52.446;-1.930;2023-05-07T04:14:09;100074.28;;;14.21;85.70
60642;BME280;46837;52.446;-1.930;2023-05-07T04:15:09;100074.35;;;14.24;85.62
60642;BME280;46837;52.446;-1.930;2023-05-07T04:16:09;100075.63;;;14.26;85.47
60642;BME280;46837;52.446;-1.930;2023-05-07T04:17:09;100077.37;;;14.24;85.37
60642;BME280;46837;52.446;-1.930;2023-05-07T04:18:09;100079.96;;;14.24;85.33
60642;BME280;46837;52.446;-1.930;2023-05-07T04:19:09;100079.84;;;14.24;85.36
60642;BME280;46837;52.446;-1.930;2023-05-07T04:20:14;100081.27;;;14.25;85.23
60642;BME280;46837;52.446;-1.930;2023-05-07T04:21:16;100083.64;;;14.23;85.20
60642;BME280;46837;52.446;-1.930;2023-05-07T04:22:10;100083.15;;;14.23;85.28
60642;BME280;46837;52.446;-1.930;2023-05-07T04:23:09;100085.72;;;14.25;85.16
60642;BME280;46837;52.446;-1.930;2023-05-07T04:24:09;100086.84;;;14.27;85.02
60642;BME280;46837;52.446;-1.930;2023-05-07T04:25:09;100088.99;;;14.26;85.02
60642;BME280;46837;52.446;-1.930;2023-05-07T04:26:09;100087.50;;;14.27;85.03
60642;BME280;46837;52.446;-1.930;2023-05-07T04:27:09;100086.36;;;14.29;84.96
60642;BME280;46837;52.446;-1.930;2023-05-07T04:28:09;100087.61;;;14.27;85.08
60642;BME280;46837;52.446;-1.930;2023-05-07T04:29:09;100090.23;;;14.19;85.11
60642;BME280;46837;52.446;-1.930;2023-05-07T04:30:09;100090.21;;;14.17;85.26
60642;BME280;46837;52.446;-1.930;2023-05-07T04:31:09;100091.70;;;14.17;85.23
60642;BME280;46837;52.446;-1.930;2023-05-07T04:32:09;100087.86;;;14.21;85.15
60642;BME280;46837;52.446;-1.930;2023-05-07T04:33:09;100091.06;;;14.23;85.01
60642;BME280;46837;52.446;-1.930;2023-05-07T04:34:09;100089.79;;;14.20;85.12
60642;BME280;46837;52.446;-1.930;2023-05-07T04:35:09;100088.81;;;14.23;85.15
60642;BME280;46837;52.446;-1.930;2023-05-07T04:36:09;100089.14;;;14.23;85.12
60642;BME280;46837;52.446;-1.930;2023-05-07T04:37:09;100089.30;;;14.24;85.12
60642;BME280;46837;52.446;-1.930;2023-05-07T04:38:09;100086.54;;;14.25;85.06
60642;BME280;46837;52.446;-1.930;2023-05-07T04:39:09;100086.56;;;14.27;85.09
60642;BME280;46837;52.446;-1.930;2023-05-07T04:40:09;100085.74;;;14.27;85.07
60642;BME280;46837;52.446;-1.930;2023-05-07T04:41:09;100083.43;;;14.28;84.93
60642;BME280;46837;52.446;-1.930;2023-05-07T04:42:14;100082.90;;;14.29;84.86
60642;BME280;46837;52.446;-1.930;2023-05-07T04:43:09;100084.93;;;14.29;84.74
60642;BME280;46837;52.446;-1.930;2023-05-07T04:44:09;100090.04;;;14.29;84.71
60642;BME280;46837;52.446;-1.930;2023-05-07T04:45:09;100088.54;;;14.27;84.66
60642;BME280;46837;52.446;-1.930;2023-05-07T04:46:09;100091.66;;;14.28;84.72
60642;BME280;46837;52.446;-1.930;2023-05-07T04:47:09;100091.36;;;14.30;84.53
60642;BME280;46837;52.446;-1.930;2023-05-07T04:48:09;100092.83;;;14.31;84.44
60642;BME280;46837;52.446;-1.930;2023-05-07T04:49:09;100095.31;;;14.30;84.44
60642;BME280;46837;52.446;-1.930;2023-05-07T04:50:09;100090.87;;;14.29;84.47
60642;BME280;46837;52.446;-1.930;2023-05-07T04:51:09;100087.88;;;14.28;84.49
60642;BME280;46837;52.446;-1.930;2023-05-07T04:52:09;100090.96;;;14.27;84.34
60642;BME280;46837;52.446;-1.930;2023-05-07T04:53:09;100088.54;;;14.23;84.34
60642;BME280;46837;52.446;-1.930;2023-05-07T04:54:09;100087.10;;;14.24;84.30
60642;BME280;46837;52.446;-1.930;2023-05-07T04:55:09;100088.66;;;14.26;84.21
60642;BME280;46837;52.446;-1.930;2023-05-07T04:56:09;100089.04;;;14.27;84.13
60642;BME280;46837;52.446;-1.930;2023-05-07T04:57:09;100085.29;;;14.27;84.05
60642;BME280;46837;52.446;-1.930;2023-05-07T04:58:09;100087.82;;;14.27;83.89
60642;BME280;46837;52.446;-1.930;2023-05-07T04:59:09;100088.28;;;14.25;83.80
60642;BME280;46837;52.446;-1.930;2023-05-07T05:00:09;100086.11;;;14.24;83.84
60642;BME280;46837;52.446;-1.930;2023-05-07T05:01:09;100088.71;;;14.26;83.85
60642;BME280;46837;52.446;-1.930;2023-05-07T05:02:11;100087.23;;;14.25;83.90
60642;BME280;46837;52.446;-1.930;2023-05-07T05:03:09;100088.10;;;14.27;83.81
60642;BME280;46837;52.446;-1.930;2023-05-07T05:04:09;100089.32;;;14.26;83.68
60642;BME280;46837;52.446;-1.930;2023-05-07T05:05:09;100091.99;;;14.24;83.72
60642;BME280;46837;52.446;-1.930;2023-05-07T05:06:09;100092.20;;;14.16;83.75
60642;BME280;46837;52.446;-1.930;2023-05-07T05:07:09;100094.84;;;14.16;83.75
60642;BME280;46837;52.446;-1.930;2023-05-07T05:08:09;100098.42;;;14.19;83.66
60642;BME280;46837;52.446;-1.930;2023-05-07T05:09:09;100100.96;;;14.18;83.56
60642;BME280;46837;52.446;-1.930;2023-05-07T05:10:09;100102.07;;;14.22;83.48
60642;BME280;46837;52.446;-1.930;2023-05-07T05:11:09;100104.80;;;14.19;83.47